Time;durP1;ratioP1;P1;durP2;ratioP2;P2;SDS_P1;SDS_P2;PMS_P1;PMS_P2;Temp;Humidity;BMP_temperature;BMP_pressure;BME280_temperature;BME280_humidity;BME280_pressure;Samples;Min_cycle;Max_cycle;Signal;HPM_P1;HPM_P2
2023/04/17 00:02:14;;;;;;;9.88;2.20;;;;;;;-0.46;88.66;99488.97;4865680;28;20053;-49
2023/04/17 00:04:45;;;;;;;3.80;1.65;;;;;;;-0.38;89.14;99490.78;4869304;28;20053;-51
2023/04/17 00:07:16;;;;;;;7.55;1.85;;;;;;;-0.46;90.89;99498.38;4868682;28;20129;-51
2023/04/17 00:09:46;;;;;;;11.52;1.88;;;;;;;-0.61;91.70;99493.84;4870533;28;20063;-50
2023/04/17 00:12:17;;;;;;;8.35;2.85;;;;;;;-0.54;91.83;99500.81;4873521;28;20065;-49
2023/04/17 00:14:47;;;;;;;8.38;2.13;;;;;;;-0.58;93.27;99504.16;4879816;28;20063;-49
2023/04/17 00:17:20;;;;;;;8.07;2.20;;;;;;;-0.56;93.22;99512.75;4861617;28;20047;-49
2023/04/17 00:19:50;;;;;;;9.00;2.00;;;;;;;-0.53;92.34;99502.53;4872384;28;20065;-48
2023/04/17 00:22:21;;;;;;;3.35;1.63;;;;;;;-0.48;91.60;99512.88;4874909;28;20057;-49
2023/04/17 00:24:52;;;;;;;3.47;1.60;;;;;;;-0.56;90.32;99517.91;4875443;28;20131;-50
2023/04/17 00:27:22;;;;;;;5.20;1.88;;;;;;;-0.51;90.60;99526.53;4859815;28;20045;-49
2023/04/17 00:29:53;;;;;;;7.78;2.10;;;;;;;-0.54;90.55;99526.47;4865425;28;20221;-48
2023/04/17 00:32:25;;;;;;;6.00;2.08;;;;;;;-0.71;90.07;99504.81;4872083;28;20427;-50
2023/04/17 00:34:56;;;;;;;8.52;2.10;;;;;;;-0.48;90.09;99524.00;4865109;28;20056;-51
2023/04/17 00:37:26;;;;;;;10.50;2.42;;;;;;;-0.51;90.77;99536.78;4859320;28;20046;-50
2023/04/17 00:39:57;;;;;;;3.22;1.70;;;;;;;-0.62;90.65;99543.47;4853207;28;20179;-53
2023/04/17 00:42:27;;;;;;;8.52;2.58;;;;;;;-0.70;90.25;99551.03;4868188;28;20062;-55
2023/04/17 00:44:58;;;;;;;12.32;1.98;;;;;;;-0.67;90.26;99556.22;4875504;28;20123;-52
2023/04/17 00:47:31;;;;;;;10.20;2.30;;;;;;;-0.70;90.10;99529.63;4875839;28;20135;-54
2023/04/17 00:50:01;;;;;;;5.80;2.13;;;;;;;-0.47;90.14;99548.84;4875629;28;20076;-54
2023/04/17 00:52:32;;;;;;;4.85;1.77;;;;;;;-0.30;89.67;99546.56;4872696;28;20053;-53
2023/04/17 00:55:03;;;;;;;6.55;1.63;;;;;;;-0.27;88.28;99556.00;4871160;28;20456;-51
2023/04/17 00:57:35;;;;;;;5.35;1.50;;;;;;;-0.20;88.02;99568.13;4859065;28;20064;-54
2023/04/17 01:00:08;;;;;;;4.65;1.77;;;;;;;-0.13;87.96;99541.66;4867940;28;20053;-55
2023/04/17 01:02:41;;;;;;;2.83;1.15;;;;;;;-0.19;85.72;99543.28;4859588;28;20045;-55
2023/04/17 01:05:12;;;;;;;5.75;1.63;;;;;;;-0.27;85.83;99556.00;4867132;28;20523;-54
2023/04/17 01:07:46;;;;;;;4.78;1.58;;;;;;;-0.20;86.40;99568.13;4871368;28;20053;-56
2023/04/17 01:10:16;;;;;;;2.30;1.10;;;;;;;-0.14;86.00;99552.78;4869030;28;20058;-54
2023/04/17 01:12:48;;;;;;;4.53;1.38;;;;;;;-0.27;85.06;99566.28;4866869;28;20298;-54
2023/04/17 01:15:19;;;;;;;5.60;1.67;;;;;;;-0.12;85.49;99552.81;4872044;28;20049;-55
2023/04/17 01:17:51;;;;;;;8.45;1.48;;;;;;;-0.08;85.06;99563.13;4868949;28;20847;-57
2023/04/17 01:20:21;;;;;;;6.82;2.25;;;;;;;0.03;84.71;99550.47;4871474;28;20049;-56
2023/04/17 01:22:52;;;;;;;8.73;1.45;;;;;;;0.08;84.69;99537.72;4859078;28;20132;-56
2023/04/17 01:25:25;;;;;;;3.17;1.70;;;;;;;0.26;83.07;99548.22;4849662;28;20058;-55
2023/04/17 01:27:55;;;;;;;7.40;1.73;;;;;;;0.46;80.44;99561.34;4884144;28;20060;-56
2023/04/17 01:30:26;;;;;;;6.22;1.95;;;;;;;0.71;78.95;99547.09;4862814;28;20152;-57
2023/04/17 01:32:59;;;;;;;6.43;1.60;;;;;;;1.00;78.06;99549.09;4871496;28;20301;-57
2023/04/17 01:35:31;;;;;;;9.07;1.77;;;;;;;1.11;74.41;99532.09;4858477;28;20049;-57
2023/04/17 01:38:02;;;;;;;10.55;2.00;;;;;;;1.08;71.83;99540.63;4871083;28;20068;-57
2023/04/17 01:40:36;;;;;;;5.88;1.45;;;;;;;1.02;70.83;99547.41;4872144;28;20068;-57
2023/04/17 01:43:07;;;;;;;7.70;1.60;;;;;;;1.07;71.42;99550.91;4869953;28;20114;-57
2023/04/17 01:45:38;;;;;;;9.95;1.85;;;;;;;1.13;71.29;99540.69;4875477;28;20500;-57
2023/04/17 01:48:09;;;;;;;7.03;2.15;;;;;;;0.96;70.30;99553.38;4872797;28;20045;-57
2023/04/17 01:50:40;;;;;;;7.53;2.28;;;;;;;0.82;70.92;99550.66;4873003;28;20426;-56
2023/04/17 01:53:12;;;;;;;13.48;2.63;;;;;;;0.89;72.25;99568.72;4870349;28;20088;-58
2023/04/17 01:55:45;;;;;;;7.63;1.60;;;;;;;0.75;71.78;99573.69;4870524;28;20060;-58
2023/04/17 01:58:16;;;;;;;3.47;1.30;;;;;;;0.68;72.24;99559.91;4871345;28;20049;-58
2023/04/17 02:00:47;;;;;;;8.70;2.13;;;;;;;0.74;72.27;99562.53;4864898;28;20062;-57
2023/04/17 02:03:19;;;;;;;9.55;1.80;;;;;;;0.63;72.27;99543.56;4873112;28;20117;-58
2023/04/17 02:05:50;;;;;;;8.00;1.90;;;;;;;0.88;71.23;99575.56;4867845;28;20046;-57
2023/04/17 02:08:21;;;;;;;7.18;1.67;;;;;;;1.04;70.52;99572.31;4866962;28;20055;-57
2023/04/17 02:10:54;;;;;;;10.60;1.83;;;;;;;1.11;68.78;99575.81;4865982;28;20053;-58
2023/04/17 02:13:25;;;;;;;9.02;1.73;;;;;;;1.31;68.05;99575.19;4867527;28;20045;-58
2023/04/17 02:15:57;;;;;;;9.15;1.90;;;;;;;1.37;67.22;99564.94;4867334;28;20041;-59
2023/04/17 02:18:29;;;;;;;6.82;2.20;;;;;;;1.57;66.47;99589.13;4860325;28;20462;-58
2023/04/17 02:20:59;;;;;;;14.52;2.22;;;;;;;1.67;66.09;99590.97;4867823;28;20064;-55
2023/04/17 02:23:30;;;;;;;10.32;1.60;;;;;;;1.71;66.19;99584.97;4862600;28;20070;-58
2023/04/17 02:26:03;;;;;;;2.75;1.15;;;;;;;1.60;65.85;99589.19;4866727;28;20124;-57
2023/04/17 02:28:34;;;;;;;9.95;2.13;;;;;;;1.60;65.81;99578.88;4864990;28;20050;-60
2023/04/17 02:31:08;;;;;;;10.80;1.85;;;;;;;1.50;64.16;99546.19;4869422;28;20143;-57
2023/04/17 02:33:39;;;;;;;8.25;2.15;;;;;;;1.87;63.32;99582.53;4862014;28;20057;-56
2023/04/17 02:36:10;;;;;;;7.82;2.15;;;;;;;1.83;63.13;99537.84;4872352;28;20617;-57
2023/04/17 02:38:40;;;;;;;8.07;1.50;;;;;;;2.36;62.08;99577.72;4870009;28;20049;-58
2023/04/17 02:41:13;;;;;;;15.45;2.22;;;;;;;2.80;62.08;99580.50;4867942;28;20830;-57
2023/04/17 02:43:44;;;;;;;13.25;2.45;;;;;;;2.74;61.48;99589.94;4869601;28;20041;-58
2023/04/17 02:46:14;;;;;;;3.47;1.42;;;;;;;2.53;60.12;99580.38;4867326;28;20045;-59
2023/04/17 02:48:45;;;;;;;9.05;2.38;;;;;;;2.62;61.37;99575.28;4866793;28;20045;-57
2023/04/17 02:51:15;;;;;;;7.95;1.80;;;;;;;2.70;61.09;99572.75;4871781;28;20053;-58
2023/04/17 02:53:48;;;;;;;7.60;1.90;;;;;;;2.57;61.11;99554.63;4870676;28;20100;-57
2023/04/17 02:56:20;;;;;;;6.75;2.03;;;;;;;2.62;61.80;99576.97;4874766;28;20047;-57
2023/04/17 02:58:51;;;;;;;12.95;2.08;;;;;;;2.46;61.48;99573.47;4869006;28;20428;-57
2023/04/17 03:01:22;;;;;;;10.30;1.98;;;;;;;2.23;61.68;99570.75;4871317;28;20053;-57
2023/04/17 03:03:52;;;;;;;11.65;2.25;;;;;;;2.07;61.82;99562.94;4871482;28;20068;-57
2023/04/17 03:06:24;;;;;;;5.40;2.15;;;;;;;1.78;61.79;99567.88;4870184;28;20107;-57
2023/04/17 03:08:55;;;;;;;7.00;1.73;;;;;;;1.68;62.61;99545.47;4869838;28;20041;-57
2023/04/17 03:11:27;;;;;;;6.78;1.73;;;;;;;1.90;62.15;99573.13;4866552;28;20045;-56
2023/04/17 03:13:58;;;;;;;7.60;1.52;;;;;;;1.90;62.40;99592.88;4865334;28;20071;-57
2023/04/17 03:16:28;;;;;;;3.40;1.48;;;;;;;1.79;62.96;99594.50;4869031;28;20044;-56
2023/04/17 03:19:00;;;;;;;7.03;1.77;;;;;;;1.81;63.70;99598.81;4870271;28;20428;-57
2023/04/17 03:21:30;;;;;;;8.88;1.70;;;;;;;1.84;63.31;99603.13;4870264;28;20745;-57
2023/04/17 03:24:01;;;;;;;6.45;1.83;;;;;;;1.71;63.60;99597.84;4867105;28;20144;-57
2023/04/17 03:26:33;;;;;;;13.98;2.35;;;;;;;1.77;64.21;99606.47;4869006;28;20077;-56
2023/04/17 03:29:04;;;;;;;5.65;1.52;;;;;;;1.82;63.89;99602.22;4868528;28;20057;-56
2023/04/17 03:31:35;;;;;;;8.23;1.90;;;;;;;1.90;63.95;99603.19;4871557;28;20053;-57
2023/04/17 03:34:17;;;;;;;10.20;1.88;;;;;;;1.98;63.29;99604.09;4863280;28;20668;-53
2023/04/17 03:36:57;;;;;;;6.57;1.73;;;;;;;2.08;62.44;99593.00;4836094;28;20058;-52
2023/04/17 03:39:28;;;;;;;6.93;1.83;;;;;;;2.42;61.86;99603.53;4878241;28;20051;-57
2023/04/17 03:42:00;;;;;;;5.55;1.73;;;;;;;2.68;60.83;99605.41;4877093;28;20068;-58
2023/04/17 03:44:32;;;;;;;13.27;2.20;;;;;;;2.58;60.06;99589.88;4901869;28;20067;-57
2023/04/17 03:47:02;;;;;;;9.75;2.30;;;;;;;2.56;60.43;99599.31;5022616;28;20369;-58
2023/04/17 03:49:33;;;;;;;7.35;1.95;;;;;;;2.42;60.44;99600.97;5022966;28;20046;-55
2023/04/17 03:52:04;;;;;;;16.13;2.97;;;;;;;2.58;60.06;99597.59;5023218;28;20054;-56
2023/04/17 03:54:35;;;;;;;12.27;2.40;;;;;;;2.77;59.74;99606.31;5022922;28;20096;-55
2023/04/17 03:57:07;;;;;;;10.55;2.03;;;;;;;3.05;59.85;99608.16;5023092;28;20053;-56
2023/04/17 03:59:37;;;;;;;11.77;2.22;;;;;;;3.27;58.71;99604.78;5023012;28;20153;-56
2023/04/17 04:02:08;;;;;;;16.15;2.70;;;;;;;3.57;58.55;99605.66;5023097;28;20060;-56
2023/04/17 04:04:39;;;;;;;10.05;1.83;;;;;;;3.73;57.40;99571.25;5022707;28;20049;-57
2023/04/17 04:07:09;;;;;;;11.70;2.20;;;;;;;4.10;57.00;99607.44;5022724;28;20422;-58
2023/04/17 04:09:40;;;;;;;10.68;2.25;;;;;;;4.16;55.87;99611.72;5022397;28;20049;-57
2023/04/17 04:12:12;;;;;;;10.07;2.28;;;;;;;3.97;54.67;99616.03;5023243;28;20049;-58
2023/04/17 04:14:43;;;;;;;9.45;2.10;;;;;;;3.99;56.37;99604.81;5022813;28;20063;-58
2023/04/17 04:17:13;;;;;;;7.95;2.05;;;;;;;4.03;56.18;99605.69;5022798;28;20103;-58
2023/04/17 04:19:45;;;;;;;12.07;2.38;;;;;;;3.95;55.87;99612.59;5022442;28;20068;-58
2023/04/17 04:22:17;;;;;;;9.98;1.75;;;;;;;4.32;55.55;99613.44;5022975;28;20057;-58
2023/04/17 04:24:48;;;;;;;11.73;2.30;;;;;;;4.51;53.98;99611.66;5023075;28;20867;-58
2023/04/17 04:27:21;;;;;;;10.88;1.98;;;;;;;4.51;54.32;99615.09;5023760;28;20064;-58
2023/04/17 04:29:52;;;;;;;14.70;2.03;;;;;;;4.71;53.98;99609.88;4993203;28;20199;-58
2023/04/17 04:32:24;;;;;;;12.20;2.30;;;;;;;4.84;53.51;99618.50;5016997;28;20462;-58
2023/04/17 04:34:57;;;;;;;7.22;1.77;;;;;;;4.87;53.10;99612.44;5021948;28;20060;-58
2023/04/17 04:37:28;;;;;;;6.60;1.98;;;;;;;4.92;53.07;99605.53;5022238;28;20061;-58
2023/04/17 04:40:09;;;;;;;8.73;1.92;;;;;;;5.00;53.30;99614.09;5021609;28;20148;-55
2023/04/17 04:42:42;;;;;;;12.25;2.17;;;;;;;5.01;53.21;99615.81;5021715;28;20068;-58
2023/04/17 04:45:13;;;;;;;9.88;2.05;;;;;;;5.05;53.71;99617.53;5022497;28;20053;-58
2023/04/17 04:47:43;;;;;;;14.10;2.00;;;;;;;4.87;53.08;99607.25;5021687;28;20053;-58
2023/04/17 04:50:14;;;;;;;7.10;2.05;;;;;;;4.76;54.09;99615.03;5021096;28;20059;-58
2023/04/17 04:52:45;;;;;;;11.07;2.47;;;;;;;4.82;54.33;99608.97;5021899;28;20427;-58
2023/04/17 04:55:15;;;;;;;9.45;2.13;;;;;;;4.86;53.92;99615.88;5022558;28;20060;-58
2023/04/17 04:57:48;;;;;;;9.20;2.45;;;;;;;5.09;55.23;99608.91;5022231;28;20049;-57
2023/04/17 05:00:19;;;;;;;15.45;2.67;;;;;;;5.22;54.11;99614.88;5022096;28;20057;-58
2023/04/17 05:02:50;;;;;;;15.02;2.25;;;;;;;5.32;53.53;99606.19;5021664;28;20177;-58
2023/04/17 05:05:21;;;;;;;10.65;2.40;;;;;;;5.82;54.12;99611.91;5021408;28;20061;-57
2023/04/17 05:07:52;;;;;;;13.88;2.30;;;;;;;6.36;53.13;99620.09;5021453;28;20049;-57
2023/04/17 05:10:22;;;;;;;11.07;2.25;;;;;;;6.68;52.08;99621.50;5021179;28;20056;-57
2023/04/17 05:12:55;;;;;;;7.38;2.22;;;;;;;6.76;50.23;99617.09;5021340;28;20158;-57
2023/04/17 05:15:26;;;;;;;10.68;2.60;;;;;;;6.52;51.34;99609.59;5021161;28;20049;-57
2023/04/17 05:17:57;;;;;;;8.18;2.20;;;;;;;6.31;51.61;99575.19;5021569;28;20045;-58
2023/04/17 05:20:27;;;;;;;14.52;2.58;;;;;;;6.77;51.91;99595.47;5020924;28;20060;-58
2023/04/17 05:22:58;;;;;;;13.05;2.47;;;;;;;6.97;51.30;99604.75;5021149;28;20080;-54
2023/04/17 05:25:29;;;;;;;10.98;2.33;;;;;;;7.13;51.18;99604.53;5021309;28;20118;-55
2023/04/17 05:28:01;;;;;;;9.57;2.30;;;;;;;7.21;51.19;99606.16;5020523;28;20152;-56
2023/04/17 05:30:31;;;;;;;10.20;2.33;;;;;;;7.37;50.79;99601.63;5021218;28;20446;-56
2023/04/17 05:33:05;;;;;;;7.60;2.50;;;;;;;7.31;50.01;99587.84;5021749;28;20057;-55
2023/04/17 05:35:36;;;;;;;8.57;2.33;;;;;;;7.26;50.57;99594.84;5020845;28;20115;-55
2023/04/17 05:38:06;;;;;;;11.80;2.33;;;;;;;7.33;51.28;99604.25;5021141;28;20045;-56
2023/04/17 05:40:37;;;;;;;13.05;2.28;;;;;;;7.28;52.70;99594.81;5021274;28;20399;-56
2023/04/17 05:43:11;;;;;;;17.50;2.50;;;;;;;6.80;50.63;99595.41;5020919;28;20630;-56
2023/04/17 05:45:42;;;;;;;15.98;2.75;;;;;;;6.51;51.81;99597.47;5020844;28;20061;-56
2023/04/17 05:48:12;;;;;;;10.70;2.13;;;;;;;6.19;52.34;99555.44;5021071;28;20128;-57
2023/04/17 05:50:43;;;;;;;12.45;2.78;;;;;;;6.45;52.72;99588.88;5020562;28;20195;-55
2023/04/17 05:53:13;;;;;;;11.48;2.35;;;;;;;6.53;52.39;99590.53;5020622;28;20167;-56
2023/04/17 05:55:44;;;;;;;9.02;2.20;;;;;;;6.60;52.65;99592.19;5020526;28;20360;-56
2023/04/17 05:58:16;;;;;;;10.07;2.22;;;;;;;6.62;52.42;99595.63;5020386;28;20060;-56
2023/04/17 06:00:53;;;;;;;17.33;2.38;;;;;;;6.55;52.35;99588.78;5020317;28;20068;-56
2023/04/17 06:03:24;;;;;;;8.25;2.17;;;;;;;6.51;53.22;99598.31;5020782;28;20064;-56
2023/04/17 06:05:55;;;;;;;13.35;2.90;;;;;;;6.52;53.22;99601.81;5000740;28;20057;-56
2023/04/17 06:08:26;;;;;;;12.63;2.35;;;;;;;6.55;53.49;99591.38;5017308;28;20057;-56
2023/04/17 06:10:57;;;;;;;13.27;2.50;;;;;;;6.57;53.22;99597.44;5020411;28;20053;-56
2023/04/17 06:13:30;;;;;;;11.02;2.70;;;;;;;6.76;53.03;99614.50;5020362;28;20057;-57
2023/04/17 06:16:00;;;;;;;9.85;2.53;;;;;;;6.73;52.95;99598.97;5019956;28;20072;-56
2023/04/17 06:18:31;;;;;;;13.02;3.10;;;;;;;6.98;52.92;99624.66;5020321;28;20753;-56
2023/04/17 06:21:02;;;;;;;10.00;2.28;;;;;;;6.80;52.79;99621.38;5020455;28;20068;-56
2023/04/17 06:23:33;;;;;;;11.95;2.72;;;;;;;6.75;52.78;99623.16;5020751;28;20172;-56
2023/04/17 06:26:03;;;;;;;13.85;3.15;;;;;;;6.70;53.20;99635.34;5020341;28;20056;-55
2023/04/17 06:28:35;;;;;;;14.45;2.67;;;;;;;6.76;52.94;99632.66;5020430;28;20144;-56
2023/04/17 06:31:06;;;;;;;11.25;3.08;;;;;;;6.76;53.34;99632.66;5019681;28;20077;-56
2023/04/17 06:33:37;;;;;;;14.77;3.38;;;;;;;6.74;53.03;99642.25;5019602;28;20067;-56
2023/04/17 06:36:08;;;;;;;15.75;3.55;;;;;;;6.68;52.68;99637.09;5020727;28;20053;-55
2023/04/17 06:38:41;;;;;;;33.40;9.75;;;;;;;6.73;51.91;99645.69;5020057;28;20526;-53
2023/04/17 06:41:13;;;;;;;18.63;5.68;;;;;;;6.69;52.10;99644.88;5019881;28;20431;-54
2023/04/17 06:43:46;;;;;;;12.93;3.05;;;;;;;6.91;52.38;99634.22;5019625;28;20057;-54
2023/04/17 06:46:17;;;;;;;14.70;3.50;;;;;;;6.84;49.81;99654.25;5020151;28;20049;-55
2023/04/17 06:48:48;;;;;;;18.70;2.80;;;;;;;6.59;49.51;99652.75;5020160;28;20045;-53
2023/04/17 06:51:19;;;;;;;20.60;3.22;;;;;;;6.41;50.64;99654.66;5020044;28;20061;-54
2023/04/17 06:53:50;;;;;;;16.25;2.50;;;;;;;6.29;50.43;99659.97;5019527;28;20084;-49
2023/04/17 06:56:23;;;;;;;21.27;4.53;;;;;;;6.15;50.92;99664.41;5019826;28;20148;-54
2023/04/17 06:58:56;;;;;;;18.75;4.13;;;;;;;6.18;51.05;99647.06;5019461;28;20140;-54
2023/04/17 07:01:30;;;;;;;47.63;11.60;;;;;;;6.13;50.79;99666.16;5019614;28;20053;-55
2023/04/17 07:04:00;;;;;;;25.90;4.22;;;;;;;6.07;51.31;99658.44;5019475;28;20045;-55
2023/04/17 07:06:32;;;;;;;34.95;7.63;;;;;;;5.95;51.05;99665.41;5019639;28;20498;-54
2023/04/17 07:09:03;;;;;;;17.45;3.63;;;;;;;5.60;51.82;99647.47;5020014;28;20119;-55
2023/04/17 07:11:33;;;;;;;14.68;3.42;;;;;;;5.24;51.57;99633.88;5019671;28;20052;-55
2023/04/17 07:14:06;;;;;;;13.85;2.83;;;;;;;5.24;52.83;99658.88;5018472;28;20072;-55
2023/04/17 07:16:38;;;;;;;13.13;2.10;;;;;;;5.00;53.34;99624.47;5019964;28;20068;-55
2023/04/17 07:19:08;;;;;;;16.48;3.15;;;;;;;4.98;54.29;99641.72;5019710;28;20144;-56
2023/04/17 07:21:40;;;;;;;17.63;2.50;;;;;;;5.17;53.79;99673.59;5019667;28;20631;-55
2023/04/17 07:24:10;;;;;;;20.25;3.33;;;;;;;5.26;53.68;99681.31;4929561;28;20464;-55
2023/04/17 07:26:42;;;;;;;17.30;3.17;;;;;;;5.16;53.71;99657.19;4887717;28;20105;-55
2023/04/17 07:29:14;;;;;;;16.30;3.70;;;;;;;5.36;53.59;99695.09;4865373;28;20053;-55
2023/04/17 07:31:44;;;;;;;18.70;3.70;;;;;;;5.35;54.06;99704.59;4869246;28;20395;-54
2023/04/17 07:34:15;;;;;;;16.70;4.20;;;;;;;5.11;54.11;99669.28;4867149;28;20093;-55
2023/04/17 07:36:46;;;;;;;17.45;3.70;;;;;;;5.12;54.26;99686.56;4871553;28;20066;-55
2023/04/17 07:39:16;;;;;;;18.10;3.78;;;;;;;5.07;54.91;99709.03;4872032;28;20097;-53
2023/04/17 07:41:47;;;;;;;16.60;3.70;;;;;;;4.96;55.71;99716.81;4866939;28;20565;-54
2023/04/17 07:44:20;;;;;;;21.48;3.60;;;;;;;4.87;55.85;99716.00;4871597;28;20069;-56
2023/04/17 07:46:50;;;;;;;15.40;3.45;;;;;;;4.71;56.66;99722.91;4867866;28;20136;-52
2023/04/17 07:49:21;;;;;;;14.23;4.03;;;;;;;4.51;57.13;99723.78;4860414;28;20065;-52
2023/04/17 07:51:52;;;;;;;15.98;3.35;;;;;;;4.37;57.51;99727.22;4867339;28;20053;-55
2023/04/17 07:54:22;;;;;;;12.35;2.85;;;;;;;4.36;58.39;99733.28;4869856;28;20063;-53
2023/04/17 07:56:57;;;;;;;13.80;2.50;;;;;;;4.30;58.28;99719.47;4869526;28;20608;-53
2023/04/17 07:59:29;;;;;;;16.05;3.38;;;;;;;4.23;58.49;99709.97;4858785;28;20165;-53
2023/04/17 08:02:01;;;;;;;11.43;3.30;;;;;;;4.18;58.35;99708.25;4867075;28;20049;-53
2023/04/17 08:04:31;;;;;;;20.33;3.63;;;;;;;4.32;58.77;99735.00;4870526;28;20042;-53
2023/04/17 08:07:03;;;;;;;12.57;3.38;;;;;;;4.21;58.85;99732.38;4868059;28;20045;-53
2023/04/17 08:09:33;;;;;;;21.90;3.13;;;;;;;4.22;59.19;99741.00;4868062;28;20050;-54
2023/04/17 08:12:04;;;;;;;14.23;2.63;;;;;;;4.17;59.51;99745.31;4866375;28;20063;-53
2023/04/17 08:14:36;;;;;;;12.15;2.80;;;;;;;4.11;60.37;99753.94;4870904;28;20103;-54
2023/04/17 08:17:06;;;;;;;22.77;5.82;;;;;;;3.99;60.85;99764.25;4859538;28;20046;-55
2023/04/17 08:19:37;;;;;;;37.50;10.30;;;;;;;3.85;61.26;99770.25;4869009;28;20060;-54
2023/04/17 08:22:08;;;;;;;30.42;7.50;;;;;;;3.75;61.82;99778.84;4888026;28;20495;-54
2023/04/17 08:24:39;;;;;;;41.08;11.60;;;;;;;3.67;61.73;99772.78;4868989;28;20057;-53
2023/04/17 08:27:09;;;;;;;18.45;4.47;;;;;;;3.43;61.42;99771.81;4870261;28;20064;-53
2023/04/17 08:29:41;;;;;;;22.42;4.43;;;;;;;3.41;61.58;99783.84;4873026;28;20059;-53
2023/04/17 08:32:12;;;;;;;15.18;3.00;;;;;;;3.42;62.19;99797.63;4872864;28;20045;-55
2023/04/17 08:34:45;;;;;;;25.52;3.58;;;;;;;3.12;62.12;99762.16;4873053;28;20326;-53
2023/04/17 08:37:15;;;;;;;20.35;3.53;;;;;;;3.22;62.19;99805.25;4867180;28;20054;-54
2023/04/17 08:39:51;;;;;;;17.73;3.30;;;;;;;3.20;62.48;99812.16;4873251;28;20150;-53
2023/04/17 08:42:22;;;;;;;16.77;3.10;;;;;;;2.87;63.02;99789.53;4872122;28;20041;-55
2023/04/17 08:44:58;;;;;;;22.42;3.65;;;;;;;2.97;63.20;99825.75;4866750;28;20069;-55
2023/04/17 08:47:29;;;;;;;19.83;4.25;;;;;;;2.78;63.68;99824.75;4856578;28;20145;-55
2023/04/17 08:50:00;;;;;;;21.23;3.13;;;;;;;2.66;63.84;99834.09;4869477;28;20115;-54
2023/04/17 08:52:32;;;;;;;19.95;4.28;;;;;;;2.64;64.68;99840.97;4868831;28;20492;-55
2023/04/17 08:55:03;;;;;;;13.50;3.47;;;;;;;2.47;65.14;99839.09;4867308;28;20152;-55
2023/04/17 08:57:38;;;;;;;28.45;3.72;;;;;;;2.36;65.80;99843.28;4871724;28;20046;-54
2023/04/17 09:00:46;;;;;;;25.35;3.75;;;;;;;2.27;66.38;99845.75;4863045;28;20138;-53
2023/04/17 09:03:42;;;;;;;24.23;3.38;;;;;;;2.10;67.18;99843.88;4867433;28;20059;-55
2023/04/17 09:06:14;;;;;;;15.40;2.63;;;;;;;1.92;67.72;99848.78;4860186;28;20049;-53
2023/04/17 09:09:00;;;;;;;28.42;3.72;;;;;;;1.80;68.39;99853.78;4869218;28;20065;-53
2023/04/17 09:11:36;;;;;;;14.20;3.33;;;;;;;1.70;68.60;99864.00;4862966;28;20479;-55
2023/04/17 09:14:07;;;;;;;16.52;3.25;;;;;;;1.58;69.03;99869.00;4856776;28;20867;-53
2023/04/17 09:16:54;;;;;;;19.48;5.15;;;;;;;1.11;69.41;99825.41;4870873;28;20060;-55
2023/04/17 09:19:27;;;;;;;20.83;3.75;;;;;;;1.38;70.19;99894.47;4860792;28;20061;-55
2023/04/17 09:22:12;;;;;;;23.48;3.67;;;;;;;1.28;70.56;99901.16;4873580;28;20057;-55
2023/04/17 09:24:50;;;;;;;12.43;3.08;;;;;;;1.12;71.02;99891.47;4859497;28;20058;-53
2023/04/17 09:27:25;;;;;;;19.33;4.43;;;;;;;1.08;71.97;99907.72;4872416;28;20055;-54
2023/04/17 09:30:01;;;;;;;14.13;3.72;;;;;;;0.98;71.86;99916.13;4868521;28;20484;-55
2023/04/17 09:32:44;;;;;;;17.92;3.40;;;;;;;0.92;72.57;99934.00;4870535;28;20695;-55
2023/04/17 09:35:27;;;;;;;15.32;3.25;;;;;;;0.58;73.41;99879.44;4858270;28;20415;-53
2023/04/17 09:38:04;;;;;;;19.20;3.75;;;;;;;0.78;73.70;99932.06;4860414;28;20064;-55
2023/04/17 09:40:46;;;;;;;20.92;4.57;;;;;;;0.69;73.86;99931.03;4862525;28;20053;-55
2023/04/17 09:43:21;;;;;;;17.85;4.53;;;;;;;0.60;74.09;99930.03;4859282;28;20484;-54
2023/04/17 09:45:52;;;;;;;17.20;3.55;;;;;;;0.51;74.68;99944.44;4871059;28;20064;-55
2023/04/17 09:48:25;;;;;;;25.13;4.07;;;;;;;0.46;74.88;99943.47;4871223;28;20060;-55
2023/04/17 09:50:56;;;;;;;12.25;3.78;;;;;;;0.35;75.66;99939.00;4865996;28;20063;-54
2023/04/17 09:53:27;;;;;;;22.25;4.38;;;;;;;0.35;75.74;99954.41;4871527;28;20056;-55
2023/04/17 09:56:04;;;;;;;18.38;4.10;;;;;;;0.27;76.28;99955.94;4872200;28;20049;-55
2023/04/17 09:58:38;;;;;;;20.42;4.80;;;;;;;0.16;76.89;99947.16;4870670;28;20253;-55
2023/04/17 10:01:09;;;;;;;16.80;6.13;;;;;;;0.08;77.33;99959.00;4855713;28;20129;-56
2023/04/17 10:03:44;;;;;;;45.95;11.38;;;;;;;-0.02;78.13;99960.50;4868266;28;20046;-56
2023/04/17 10:06:16;;;;;;;24.67;5.63;;;;;;;-0.07;78.55;99970.66;4868755;28;20058;-54
2023/04/17 10:08:49;;;;;;;20.48;6.95;;;;;;;-0.14;78.91;99973.06;4872553;28;20057;-55
2023/04/17 10:11:21;;;;;;;30.13;11.02;;;;;;;-0.28;79.70;99975.31;4868006;28;20049;-55
2023/04/17 10:14:05;;;;;;;34.17;12.90;;;;;;;-0.45;80.54;99968.13;4869167;28;21268;-56
2023/04/17 10:16:40;;;;;;;32.53;10.90;;;;;;;-0.57;81.49;99978.09;4855328;28;20062;-55
2023/04/17 10:19:32;;;;;;;27.30;11.60;;;;;;;-0.89;82.69;99955.06;4870255;28;20060;-55
2023/04/17 10:22:31;;;;;;;66.43;24.25;;;;;;;-0.82;83.93;99980.88;4859738;28;20049;-56
2023/04/17 10:25:20;;;;;;;60.50;23.23;;;;;;;-1.00;84.59;99982.16;4888439;28;20049;-55
2023/04/17 10:27:57;;;;;;;39.65;12.45;;;;;;;-1.05;85.25;99983.72;4856719;28;20701;-55
2023/04/17 10:30:53;;;;;;;36.53;12.85;;;;;;;-1.05;85.94;99999.09;4864786;28;20672;-56
2023/04/17 10:33:30;;;;;;;31.73;10.52;;;;;;;-1.15;86.78;100002.25;4878555;28;20059;-56
2023/04/17 10:36:02;;;;;;;27.92;11.48;;;;;;;-1.11;87.41;100014.34;4836563;28;20109;-55
2023/04/17 10:38:46;;;;;;;21.98;5.90;;;;;;;-1.17;87.72;100009.06;4868074;28;20114;-56
2023/04/17 10:41:21;;;;;;;20.90;5.20;;;;;;;-1.25;88.41;100021.66;4857406;28;20046;-56
2023/04/17 10:43:52;;;;;;;17.80;3.90;;;;;;;-1.40;89.10;100017.00;4870094;28;20049;-54
2023/04/17 10:46:27;;;;;;;11.63;3.38;;;;;;;-1.57;89.76;100013.09;4872159;28;20056;-56
2023/04/17 10:49:03;;;;;;;20.20;4.20;;;;;;;-1.56;89.48;100028.50;4867627;28;20673;-55
2023/04/17 10:51:44;;;;;;;10.55;3.47;;;;;;;-1.81;90.09;99993.63;4869304;28;20057;-56
2023/04/17 10:54:15;;;;;;;15.27;4.20;;;;;;;-1.57;90.32;100038.72;4863170;28;20066;-53
2023/04/17 10:56:48;;;;;;;19.13;4.72;;;;;;;-1.58;90.82;100053.19;4874269;28;20117;-54
2023/04/17 10:59:28;;;;;;;19.13;4.07;;;;;;;-1.52;91.20;100044.84;4865592;28;20083;-56
2023/04/17 11:02:03;;;;;;;15.32;3.17;;;;;;;-1.47;91.35;100045.84;4859965;28;20049;-55
2023/04/17 11:04:34;;;;;;;17.30;4.00;;;;;;;-1.39;90.78;100049.47;4870655;28;20071;-55
2023/04/17 11:07:06;;;;;;;19.23;4.00;;;;;;;-1.40;90.24;100052.88;4867532;28;20174;-56
2023/04/17 11:09:42;;;;;;;20.80;4.13;;;;;;;-1.48;89.59;100049.19;4858187;28;20053;-55
2023/04/17 11:12:15;;;;;;;25.95;4.00;;;;;;;-1.41;88.87;100056.25;4870327;28;20057;-55
2023/04/17 11:14:52;;;;;;;18.58;4.10;;;;;;;-1.40;88.68;100052.88;4861282;28;20064;-55
2023/04/17 11:17:23;;;;;;;29.25;9.70;;;;;;;-1.46;88.79;100062.94;4864358;28;20080;-55
2023/04/17 11:19:53;;;;;;;47.50;17.13;;;;;;;-1.54;88.92;100061.84;4867798;28;20049;-55
2023/04/17 11:22:32;;;;;;;35.65;10.07;;;;;;;-1.54;88.97;100059.28;4861920;28;20059;-54
2023/04/17 11:25:05;;;;;;;38.33;13.80;;;;;;;-1.54;88.33;100051.59;4870187;28;20481;-56
2023/04/17 11:27:44;;;;;;;;;;;;;;;-1.56;87.76;100051.56;4859716;28;20041;-55
2023/04/17 11:30:23;;;;;;;177.88;76.32;;;;;;;-1.56;87.59;100040.44;4868023;28;20016;-56
2023/04/17 11:32:56;;;;;;;;;;;;;;;-1.56;87.49;100040.44;4862531;28;20142;-55
2023/04/17 11:35:31;;;;;;;35.83;12.35;;;;;;;-1.61;87.07;100042.00;4860528;28;19928;-55
2023/04/17 11:38:16;;;;;;;21.70;8.07;;;;;;;-1.65;87.80;100050.41;4883962;28;20060;-54
2023/04/17 11:40:53;;;;;;;26.20;8.45;;;;;;;-1.80;88.08;100051.72;4855912;28;20050;-54
2023/04/17 11:43:24;;;;;;;23.42;8.45;;;;;;;-1.90;88.57;100059.06;4867202;28;20601;-55
2023/04/17 11:45:56;;;;;;;17.60;6.90;;;;;;;-2.06;89.10;100047.50;4867450;28;20073;-55
2023/04/17 11:48:31;;;;;;;16.27;3.78;;;;;;;-1.99;90.48;100051.97;4868620;28;20068;-55
2023/04/17 11:51:05;;;;;;;20.35;5.65;;;;;;;-1.98;90.24;100046.03;4870730;28;20091;-55
2023/04/17 11:53:48;;;;;;;18.70;4.63;;;;;;;-2.00;90.13;100052.78;4859536;28;20054;-54
2023/04/17 11:56:19;;;;;;;17.35;6.68;;;;;;;-2.04;89.92;100061.22;4859434;28;20057;-55
2023/04/17 11:58:56;;;;;;;18.45;5.88;;;;;;;-2.01;90.31;100067.28;4870786;28;20092;-56